Himawari 2 — JG5636 — position and weather

sailwx.info

Track history (hours):
 
Tides and Currents Weather Stations Pressure Air Temp Water Temp Dewpoint Dewpoint Depression Visibility Wind Speed Wind Dir Waves Ship Positions

Himawari 2

Last reported at 2015-Sep-01 19:24 UTC. Time now 2015-Sep-04 03:53 UTC.
Position N 35°27' E 140°47'.

Length 161 m; draft 6.5 m.

Type: Cargo ship. MMSI: 431100957.

Date/timePositionNaut miles runAvg speedWind from/ knotsBaromVisibWave heightAir tempDewpointWater temp
2015-Sep-01 19:24N 35°27' E 140°47'1719.5
2015-Sep-01 18:33N 35°14' E 140°35'2120.6
2015-Sep-01 17:33N 35°01' E 140°15'2218.2
2015-Sep-01 16:22N 34°51' E 139°51'1315.5
2015-Sep-01 15:33N 35°02' E 139°43'1515.2
2015-Sep-01 14:33N 35°17' E 139°45'1414.0
2015-Sep-01 13:33N 35°30' E 139°51'6 6.3
2015-Sep-01 12:31N 35°36' E 139°48'0 0.0
2015-Sep-01 11:31N 35°36' E 139°48'0 0.0
2015-Sep-01 10:31N 35°36' E 139°48'0 0.0
2015-Sep-01 09:31N 35°36' E 139°48'0 0.0
2015-Sep-01 08:31N 35°36' E 139°48'0 0.0
2015-Sep-01 07:31N 35°36' E 139°48'0 0.0
2015-Sep-01 06:31N 35°36' E 139°48'0 0.0
2015-Sep-01 05:31N 35°36' E 139°48'0 0.0
2015-Sep-01 04:31N 35°36' E 139°48'0 0.0
2015-Sep-01 03:28N 35°36' E 139°48'0 0.0
2015-Sep-01 02:31N 35°36' E 139°48'0 0.0
2015-Sep-01 01:31N 35°36' E 139°48'1 0.7
2015-Sep-01 00:33N 35°36' E 139°47'10 9.7
2015-Aug-31 23:33N 35°26' E 139°49'1111.4
2015-Aug-31 22:33N 35°15' E 139°47'1716.9
2015-Aug-31 21:33N 34°60' E 139°38'8219.0
2015-Aug-31 17:15N 34°15' E 138°14'16318.7
2015-Aug-31 08:30N 33°57' E 134°58'2122.7
2015-Aug-31 07:33N 34°19' E 134°59'2322.7
2015-Aug-31 06:33N 34°35' E 135°18'28 0.9
2015-Aug-30 00:34N 34°12' E 134°59'23415.5
2015-Aug-29 09:27N 35°02' E 139°37'1517.3
2015-Aug-29 08:33N 35°15' E 139°46'1313.2
2015-Aug-29 07:33N 35°28' E 139°49'8 7.9
2015-Aug-29 06:31N 35°36' E 139°48'0 0.0
2015-Aug-29 05:31N 35°36' E 139°48'0 0.0
2015-Aug-29 04:31N 35°36' E 139°48'0 0.0
2015-Aug-29 03:31N 35°36' E 139°48'0 0.0
2015-Aug-29 02:31N 35°36' E 139°48'0 0.1
2015-Aug-29 01:34N 35°36' E 139°48'10 9.5
2015-Aug-29 00:33N 35°27' E 139°49'1211.8
2015-Aug-28 23:33N 35°15' E 139°47'1514.9
2015-Aug-28 22:34N 35°01' E 139°44'1414.0
2015-Aug-28 21:34N 34°53' E 139°58'2219.4
2015-Aug-28 20:25N 35°04' E 140°21'1719.1
2015-Aug-28 19:30N 35°16' E 140°37'1920.2
2015-Aug-28 18:33N 35°32' E 140°51'  
2015-Aug-25 18:33N 35°24' E 140°43'2416.4
2015-Aug-25 17:04N 35°04' E 140°25'815.4
2015-Aug-25 16:33N 35°01' E 140°16'1514.8
2015-Aug-25 15:33N 34°54' E 140°00'1212.2
2015-Aug-25 14:33N 34°55' E 139°45'1817.9
2015-Aug-25 13:33N 35°13' E 139°46'1312.8
2015-Aug-25 12:34N 35°25' E 139°44'1111.5
2015-Aug-25 11:34N 35°36' E 139°48'0 0.0
2015-Aug-25 10:32N 35°36' E 139°48'0 0.0
2015-Aug-25 09:32N 35°36' E 139°48'0 0.0
2015-Aug-25 08:32N 35°36' E 139°48'0 0.0
2015-Aug-25 07:32N 35°36' E 139°48'0 0.0
2015-Aug-25 06:29N 35°36' E 139°48'0 0.0
2015-Aug-25 05:32N 35°36' E 139°48'0 0.0
2015-Aug-25 04:32N 35°36' E 139°48'0 0.0
2015-Aug-25 03:32N 35°36' E 139°48'0 0.0
2015-Aug-25 02:32N 35°36' E 139°48'0 0.1
2015-Aug-25 01:33N 35°36' E 139°48'9 9.1
2015-Aug-25 00:34N 35°28' E 139°50'1212.0
2015-Aug-24 23:33N 35°16' E 139°46'1615.9
2015-Aug-24 22:33N 35°01' E 139°39'24119.6
2015-Aug-24 10:14N 33°54' E 134°58'1623.7
2015-Aug-24 09:33N 34°10' E 134°59'2222.2
2015-Aug-24 08:34N 34°29' E 135°11'1515.0
2015-Aug-24 07:33N 34°40' E 135°24'0 0.0
2015-Aug-24 06:30N 34°40' E 135°24'0 0.0
2015-Aug-24 05:30N 34°40' E 135°24'0 0.0
2015-Aug-24 04:30N 34°40' E 135°24'0 0.0
2015-Aug-24 03:24N 34°40' E 135°24'0 0.0
2015-Aug-24 02:24N 34°40' E 135°24'0 0.0
2015-Aug-24 01:30N 34°40' E 135°24'0 0.0
2015-Aug-24 00:24N 34°40' E 135°24'0 0.0
2015-Aug-23 23:24N 34°40' E 135°24'0 0.0
2015-Aug-23 22:18N 34°40' E 135°24'0 0.0
2015-Aug-23 21:30N 34°40' E 135°24'0 0.0
2015-Aug-23 20:24N 34°40' E 135°24'0 0.0
2015-Aug-23 19:30N 34°40' E 135°24'0 0.0
2015-Aug-23 18:30N 34°40' E 135°24'0 0.0
2015-Aug-23 17:18N 34°40' E 135°24'0 0.0
2015-Aug-23 16:30N 34°40' E 135°24'0 0.0
2015-Aug-23 15:24N 34°40' E 135°24'0 0.0
2015-Aug-23 14:30N 34°40' E 135°24'0 0.0
2015-Aug-23 13:30N 34°40' E 135°24'0 0.0
2015-Aug-23 12:24N 34°40' E 135°24'0 0.0
2015-Aug-23 11:30N 34°40' E 135°24'0 0.0
2015-Aug-23 10:30N 34°40' E 135°24'0 0.0
2015-Aug-23 09:30N 34°40' E 135°24'0 0.0
2015-Aug-23 08:30N 34°40' E 135°24'0 0.0
2015-Aug-23 07:30N 34°40' E 135°24'0 0.0
2015-Aug-23 06:30N 34°40' E 135°24'0 0.0
2015-Aug-23 05:24N 34°40' E 135°24'0 0.0
2015-Aug-23 04:33N 34°40' E 135°24'6 6.4
2015-Aug-23 03:33N 34°35' E 135°19'2020.1
2015-Aug-23 02:33N 34°20' E 135°02'1918.8
2015-Aug-23 01:33N 34°01' E 135°00'  
Track history (hours):
 
Tides and Currents Weather Stations Pressure Air Temp Water Temp Dewpoint Dewpoint Depression Visibility Wind Speed Wind Dir Waves Ship Positions

Himawari 2

Last reported at 2015-Sep-01 19:24 UTC. Time now 2015-Sep-04 03:53 UTC.
Position N 35°27' E 140°47'.

Length 161 m; draft 6.5 m.

Type: Cargo ship. MMSI: 431100957.

Date/timePositionNaut miles runAvg speedWind from/ knotsBaromVisibWave heightAir tempDewpointWater temp
2015-Sep-01 19:24N 35°27' E 140°47'1719.5
2015-Sep-01 18:33N 35°14' E 140°35'2120.6
2015-Sep-01 17:33N 35°01' E 140°15'2218.2
2015-Sep-01 16:22N 34°51' E 139°51'1315.5
2015-Sep-01 15:33N 35°02' E 139°43'1515.2
2015-Sep-01 14:33N 35°17' E 139°45'1414.0
2015-Sep-01 13:33N 35°30' E 139°51'6 6.3
2015-Sep-01 12:31N 35°36' E 139°48'0 0.0
2015-Sep-01 11:31N 35°36' E 139°48'0 0.0
2015-Sep-01 10:31N 35°36' E 139°48'0 0.0
2015-Sep-01 09:31N 35°36' E 139°48'0 0.0
2015-Sep-01 08:31N 35°36' E 139°48'0 0.0
2015-Sep-01 07:31N 35°36' E 139°48'0 0.0
2015-Sep-01 06:31N 35°36' E 139°48'0 0.0
2015-Sep-01 05:31N 35°36' E 139°48'0 0.0
2015-Sep-01 04:31N 35°36' E 139°48'0 0.0
2015-Sep-01 03:28N 35°36' E 139°48'0 0.0
2015-Sep-01 02:31N 35°36' E 139°48'0 0.0
2015-Sep-01 01:31N 35°36' E 139°48'1 0.7
2015-Sep-01 00:33N 35°36' E 139°47'10 9.7
2015-Aug-31 23:33N 35°26' E 139°49'1111.4
2015-Aug-31 22:33N 35°15' E 139°47'1716.9
2015-Aug-31 21:33N 34°60' E 139°38'8219.0
2015-Aug-31 17:15N 34°15' E 138°14'16318.7
2015-Aug-31 08:30N 33°57' E 134°58'2122.7
2015-Aug-31 07:33N 34°19' E 134°59'2322.7
2015-Aug-31 06:33N 34°35' E 135°18'28 0.9
2015-Aug-30 00:34N 34°12' E 134°59'23415.5
2015-Aug-29 09:27N 35°02' E 139°37'1517.3
2015-Aug-29 08:33N 35°15' E 139°46'1313.2
2015-Aug-29 07:33N 35°28' E 139°49'8 7.9
2015-Aug-29 06:31N 35°36' E 139°48'0 0.0
2015-Aug-29 05:31N 35°36' E 139°48'0 0.0
2015-Aug-29 04:31N 35°36' E 139°48'0 0.0
2015-Aug-29 03:31N 35°36' E 139°48'0 0.0
2015-Aug-29 02:31N 35°36' E 139°48'0 0.1
2015-Aug-29 01:34N 35°36' E 139°48'10 9.5
2015-Aug-29 00:33N 35°27' E 139°49'1211.8
2015-Aug-28 23:33N 35°15' E 139°47'1514.9
2015-Aug-28 22:34N 35°01' E 139°44'1414.0
2015-Aug-28 21:34N 34°53' E 139°58'2219.4
2015-Aug-28 20:25N 35°04' E 140°21'1719.1
2015-Aug-28 19:30N 35°16' E 140°37'1920.2
2015-Aug-28 18:33N 35°32' E 140°51'  
2015-Aug-25 18:33N 35°24' E 140°43'2416.4
2015-Aug-25 17:04N 35°04' E 140°25'815.4
2015-Aug-25 16:33N 35°01' E 140°16'1514.8
2015-Aug-25 15:33N 34°54' E 140°00'1212.2
2015-Aug-25 14:33N 34°55' E 139°45'1817.9
2015-Aug-25 13:33N 35°13' E 139°46'1312.8
2015-Aug-25 12:34N 35°25' E 139°44'1111.5
2015-Aug-25 11:34N 35°36' E 139°48'0 0.0
2015-Aug-25 10:32N 35°36' E 139°48'0 0.0
2015-Aug-25 09:32N 35°36' E 139°48'0 0.0
2015-Aug-25 08:32N 35°36' E 139°48'0 0.0
2015-Aug-25 07:32N 35°36' E 139°48'0 0.0
2015-Aug-25 06:29N 35°36' E 139°48'0 0.0
2015-Aug-25 05:32N 35°36' E 139°48'0 0.0
2015-Aug-25 04:32N 35°36' E 139°48'0 0.0
2015-Aug-25 03:32N 35°36' E 139°48'0 0.0
2015-Aug-25 02:32N 35°36' E 139°48'0 0.1
2015-Aug-25 01:33N 35°36' E 139°48'9 9.1
2015-Aug-25 00:34N 35°28' E 139°50'1212.0
2015-Aug-24 23:33N 35°16' E 139°46'1615.9
2015-Aug-24 22:33N 35°01' E 139°39'24119.6
2015-Aug-24 10:14N 33°54' E 134°58'1623.7
2015-Aug-24 09:33N 34°10' E 134°59'2222.2
2015-Aug-24 08:34N 34°29' E 135°11'1515.0
2015-Aug-24 07:33N 34°40' E 135°24'0 0.0
2015-Aug-24 06:30N 34°40' E 135°24'0 0.0
2015-Aug-24 05:30N 34°40' E 135°24'0 0.0
2015-Aug-24 04:30N 34°40' E 135°24'0 0.0
2015-Aug-24 03:24N 34°40' E 135°24'0 0.0
2015-Aug-24 02:24N 34°40' E 135°24'0 0.0
2015-Aug-24 01:30N 34°40' E 135°24'0 0.0
2015-Aug-24 00:24N 34°40' E 135°24'0 0.0
2015-Aug-23 23:24N 34°40' E 135°24'0 0.0
2015-Aug-23 22:18N 34°40' E 135°24'0 0.0
2015-Aug-23 21:30N 34°40' E 135°24'0 0.0
2015-Aug-23 20:24N 34°40' E 135°24'0 0.0
2015-Aug-23 19:30N 34°40' E 135°24'0 0.0
2015-Aug-23 18:30N 34°40' E 135°24'0 0.0
2015-Aug-23 17:18N 34°40' E 135°24'0 0.0
2015-Aug-23 16:30N 34°40' E 135°24'0 0.0
2015-Aug-23 15:24N 34°40' E 135°24'0 0.0
2015-Aug-23 14:30N 34°40' E 135°24'0 0.0
2015-Aug-23 13:30N 34°40' E 135°24'0 0.0
2015-Aug-23 12:24N 34°40' E 135°24'0 0.0
2015-Aug-23 11:30N 34°40' E 135°24'0 0.0
2015-Aug-23 10:30N 34°40' E 135°24'0 0.0
2015-Aug-23 09:30N 34°40' E 135°24'0 0.0
2015-Aug-23 08:30N 34°40' E 135°24'0 0.0
2015-Aug-23 07:30N 34°40' E 135°24'0 0.0
2015-Aug-23 06:30N 34°40' E 135°24'0 0.0
2015-Aug-23 05:24N 34°40' E 135°24'0 0.0
2015-Aug-23 04:33N 34°40' E 135°24'6 6.4
2015-Aug-23 03:33N 34°35' E 135°19'2020.1
2015-Aug-23 02:33N 34°20' E 135°02'1918.8
2015-Aug-23 01:33N 34°01' E 135°00'  

Dump ship's entire track history